Time;durP1;ratioP1;P1;durP2;ratioP2;P2;SDS_P1;SDS_P2;PMS_P1;PMS_P2;Temp;Humidity;BMP_temperature;BMP_pressure;BME280_temperature;BME280_humidity;BME280_pressure;Samples;Min_cycle;Max_cycle;Signal;HPM_P1;HPM_P2
2022/01/13 00:00:12;;;;;;;11.48;5.90;;;1.40;91.10;;;0.85;100.00;101418.25;4999284;28;20276;-65
2022/01/13 00:02:38;;;;;;;6.43;5.63;;;1.40;91.10;;;0.99;100.00;101429.22;5032221;28;20192;-64
2022/01/13 00:05:05;;;;;;;9.25;5.82;;;1.50;91.20;;;1.09;100.00;101419.91;5031705;28;20192;-64
2022/01/13 00:07:31;;;;;;;7.05;4.90;;;1.50;91.00;;;1.18;100.00;101441.94;5031739;28;20319;-64
2022/01/13 00:09:57;;;;;;;8.88;7.15;;;1.60;91.10;;;1.17;100.00;101441.09;5033092;28;20243;-64
2022/01/13 00:12:27;;;;;;;9.05;5.82;;;1.60;91.00;;;1.22;100.00;101436.03;5015688;28;20200;-64
2022/01/13 00:18:36;;;;;;;;;;;1.70;91.20;;;1.34;100.00;101444.47;5033700;28;20278;-64
2022/01/13 00:25:33;;;;;;;7.93;6.35;;;1.90;91.20;;;1.08;100.00;101397.88;5033140;28;20702;-64
2022/01/13 00:28:02;;;;;;;7.13;5.45;;;1.90;91.00;;;1.04;100.00;101406.38;5015679;28;20216;-64
2022/01/13 00:30:28;;;;;;;5.93;5.15;;;1.80;91.10;;;1.27;100.00;101454.66;5032931;28;20215;-64
2022/01/13 00:32:54;;;;;;;8.35;6.20;;;1.80;91.20;;;1.17;100.00;101452.97;5031207;28;20193;-64
2022/01/13 00:35:20;;;;;;;7.20;5.65;;;1.80;91.20;;;1.14;100.00;101454.69;5032766;28;20195;-64
2022/01/13 00:37:46;;;;;;;7.60;5.63;;;1.80;91.20;;;1.17;100.00;101452.97;5033084;28;20196;-64
2022/01/13 00:40:13;;;;;;;7.93;5.90;;;1.80;91.30;;;1.23;100.00;101464.00;5031542;28;20176;-64
2022/01/13 00:42:39;;;;;;;8.85;5.68;;;1.80;91.30;;;1.18;100.00;101452.97;5031903;28;20620;-64
2022/01/13 00:45:06;;;;;;;9.75;6.82;;;1.80;91.40;;;1.27;100.00;101473.28;5032416;28;20196;-64
2022/01/13 00:47:35;;;;;;;6.82;5.78;;;1.80;91.40;;;1.28;100.00;101475.00;5031504;28;20599;-64
2022/01/13 00:50:01;;;;;;;7.75;5.22;;;1.80;91.40;;;1.22;100.00;101464.84;5031538;28;20212;-64
2022/01/13 00:52:27;;;;;;;7.47;5.53;;;1.90;91.50;;;1.42;100.00;101486.00;5032657;28;20617;-64
2022/01/13 00:54:53;;;;;;;7.70;5.65;;;1.90;91.50;;;1.43;100.00;101484.31;5032567;28;20189;-64
2022/01/13 00:57:19;;;;;;;8.52;5.78;;;1.90;91.40;;;1.36;100.00;101475.84;5031355;28;20326;-64
2022/01/13 00:59:45;;;;;;;6.25;5.43;;;1.90;91.10;;;1.32;100.00;101476.66;5031952;28;20605;-64
2022/01/13 01:02:11;;;;;;;7.50;6.05;;;1.90;91.20;;;1.22;100.00;101479.25;5014711;28;20637;-64
2022/01/13 01:04:36;;;;;;;7.78;5.00;;;1.80;91.20;;;1.19;100.00;101487.72;5032590;28;20196;-64
2022/01/13 01:07:03;;;;;;;8.98;6.10;;;1.70;91.30;;;1.28;100.00;101491.94;5032318;28;20747;-64
2022/01/13 01:09:48;;;;;;;7.75;5.28;;;1.80;91.40;;;1.37;100.00;101486.84;5032433;28;20772;-64
2022/01/13 01:12:14;;;;;;;6.30;4.95;;;1.80;91.30;;;1.30;100.00;101480.09;5031306;28;20188;-64
2022/01/13 01:14:46;;;;;;;8.10;5.45;;;1.80;91.10;;;1.35;100.00;101489.41;5031292;28;20249;-64
2022/01/13 01:17:15;;;;;;;7.43;5.20;;;1.80;91.10;;;1.33;100.00;101490.22;5032198;28;20196;-64
2022/01/13 01:19:47;;;;;;;9.25;5.18;;;1.80;91.20;;;1.28;100.00;101481.78;5031626;28;20208;-64
2022/01/13 01:27:40;;;;;;;6.97;5.20;;;1.90;90.90;;;1.43;100.00;101499.56;5031702;28;20196;-64
2022/01/13 01:30:21;;;;;;;8.60;6.00;;;1.90;90.90;;;1.18;100.00;101449.56;5001390;28;20232;-64
2022/01/13 01:32:47;;;;;;;5.97;5.38;;;1.90;90.90;;;1.34;100.00;101494.47;5033491;28;20180;-64
2022/01/13 01:35:15;;;;;;;7.07;5.35;;;1.80;90.90;;;1.36;100.00;101490.25;5014703;28;20194;-64
2022/01/13 01:37:41;;;;;;;5.90;4.85;;;1.80;91.30;;;1.31;100.00;101491.97;5032128;28;20315;-64
2022/01/13 01:40:09;;;;;;;7.63;4.90;;;1.80;91.20;;;1.01;100.00;101450.44;5014562;28;20646;-64
2022/01/13 01:42:35;;;;;;;6.38;5.15;;;1.80;91.20;;;1.18;100.00;101478.38;5031296;28;20203;-64
2022/01/13 01:45:01;;;;;;;6.40;5.60;;;1.70;91.20;;;1.02;100.00;101461.44;5035166;28;20185;-64
2022/01/13 01:47:29;;;;;;;8.45;5.47;;;1.80;91.30;;;1.18;100.00;101490.25;5018062;28;20219;-64
2022/01/13 01:50:10;;;;;;;6.57;5.03;;;1.70;91.20;;;1.16;100.00;101487.69;5018407;28;20216;-64
2022/01/13 01:52:36;;;;;;;8.23;5.07;;;1.70;91.00;;;1.10;100.00;101488.56;5035851;28;20183;-64
2022/01/13 01:55:04;;;;;;;8.02;6.07;;;1.70;90.90;;;0.98;100.00;101493.66;5034589;28;20184;-64
2022/01/13 01:57:29;;;;;;;7.78;5.72;;;1.70;90.90;;;0.87;100.00;101479.22;5018262;28;20640;-64
2022/01/13 01:59:55;;;;;;;6.55;5.43;;;1.60;90.70;;;0.69;100.00;101422.47;5034432;28;20259;-64
2022/01/13 02:02:23;;;;;;;8.52;5.40;;;1.60;90.70;;;0.90;100.00;101466.53;5034373;28;20237;-64
2022/01/13 02:04:49;;;;;;;7.63;5.50;;;1.60;90.70;;;0.92;100.00;101470.75;5035701;28;20254;-64
2022/01/13 02:07:15;;;;;;;6.00;5.07;;;1.50;90.70;;;0.99;100.00;101456.38;5001114;28;20228;-64
2022/01/13 02:09:43;;;;;;;9.80;5.85;;;1.50;90.70;;;1.00;100.00;101463.97;5034236;28;20216;-64
2022/01/13 02:12:14;;;;;;;7.43;5.38;;;1.50;90.60;;;1.03;100.00;101465.69;5035145;28;20184;-64
2022/01/13 02:17:27;;;;;;;7.53;5.13;;;1.50;90.50;;;0.79;100.00;101461.44;5033981;28;20723;-64
2022/01/13 02:19:54;;;;;;;7.88;5.45;;;1.50;90.60;;;0.89;100.00;101457.22;5018335;28;20184;-64
2022/01/13 02:22:21;;;;;;;8.55;5.60;;;1.50;90.80;;;0.91;100.00;101470.75;5033782;28;20188;-64
2022/01/13 02:24:46;;;;;;;7.18;5.13;;;1.40;90.80;;;0.58;100.00;101413.97;5033949;28;20215;-64
2022/01/13 02:27:12;;;;;;;7.25;5.28;;;1.40;90.80;;;0.73;100.00;101453.81;5033651;28;20599;-64
2022/01/13 02:29:38;;;;;;;7.13;5.95;;;1.30;90.80;;;0.16;100.00;101376.69;5033742;28;20208;-65
2022/01/13 02:32:05;;;;;;;6.53;5.53;;;1.20;91.00;;;0.57;100.00;101457.19;5033922;28;20271;-65
2022/01/13 02:34:31;;;;;;;8.13;5.63;;;1.20;91.20;;;0.47;100.00;101451.22;5017356;28;20242;-64
2022/01/13 02:36:57;;;;;;;6.68;5.10;;;1.10;91.40;;;0.50;100.00;101447.81;5016984;28;20583;-64
2022/01/13 02:39:24;;;;;;;7.37;5.80;;;1.10;91.50;;;0.45;100.00;101444.44;5017117;28;20253;-64
2022/01/13 02:41:50;;;;;;;7.95;5.35;;;1.00;91.90;;;0.48;100.00;101444.47;5017330;28;20239;-64
2022/01/13 02:44:20;;;;;;;5.60;4.80;;;1.00;91.80;;;0.12;100.00;101395.28;5034410;28;20580;-64
2022/01/13 02:49:16;;;;;;;6.15;5.28;;;0.90;91.70;;;0.02;100.00;101388.50;5017381;28;20546;-64
2022/01/13 02:51:45;;;;;;;5.30;4.80;;;0.90;91.80;;;0.29;100.00;101441.88;5033713;28;20271;-64
2022/01/13 02:54:11;;;;;;;7.15;5.25;;;0.90;91.90;;;-0.13;100.00;101371.53;5034623;28;20291;-64
2022/01/13 02:56:37;;;;;;;6.90;5.27;;;0.80;91.90;;;-0.12;100.00;101385.91;5016916;28;20199;-64
2022/01/13 02:59:04;;;;;;;7.38;4.95;;;0.80;91.90;;;0.12;100.00;101425.75;5016834;28;20711;-64
2022/01/13 03:01:30;;;;;;;10.65;6.40;;;0.70;92.00;;;0.20;100.00;101429.16;5033166;28;20258;-64
2022/01/13 03:03:56;;;;;;;5.28;4.70;;;0.60;92.10;;;0.25;100.00;101431.69;5033488;28;20192;-64
2022/01/13 03:06:32;;;;;;;6.00;5.00;;;0.60;92.30;;;0.25;100.00;101431.69;5016142;28;20232;-64
2022/01/13 03:08:58;;;;;;;5.18;4.55;;;0.60;92.40;;;-0.06;100.00;101429.06;5034143;28;20211;-64
2022/01/13 03:11:31;;;;;;;7.37;5.60;;;0.60;92.40;;;-0.01;100.00;101424.88;5032719;28;20549;-64
2022/01/13 03:13:57;;;;;;;7.97;5.45;;;0.60;92.30;;;0.06;100.00;101424.88;5034362;28;20184;-64
2022/01/13 03:16:23;;;;;;;7.00;5.47;;;0.60;92.30;;;0.11;100.00;101426.59;5016539;28;20192;-64
2022/01/13 03:18:48;;;;;;;6.05;4.68;;;0.60;92.30;;;0.06;100.00;101430.81;5034287;28;20531;-64
2022/01/13 03:21:14;;;;;;;5.57;5.03;;;0.50;92.20;;;0.03;100.00;101422.31;5016257;28;20297;-63
2022/01/13 03:23:42;;;;;;;8.10;5.10;;;0.50;92.20;;;0.04;100.00;101424.88;5033876;28;20196;-63
2022/01/13 03:26:08;;;;;;;8.82;5.97;;;0.50;92.20;;;-0.40;100.00;101366.34;5032681;28;20211;-64
2022/01/13 03:28:51;;;;;;;7.93;5.70;;;0.50;92.20;;;-0.05;100.00;101407.06;5016628;28;20200;-64
2022/01/13 03:31:22;;;;;;;6.47;4.53;;;0.50;92.20;;;-0.20;100.00;101400.25;5032757;28;20252;-64
2022/01/13 03:33:49;;;;;;;5.45;4.32;;;0.50;92.30;;;-0.10;100.00;101407.06;5016934;28;20196;-64
2022/01/13 03:36:16;;;;;;;6.57;4.75;;;0.40;92.20;;;-0.12;100.00;101410.44;5033667;28;20290;-63
2022/01/13 03:38:42;;;;;;;5.80;5.18;;;0.40;92.30;;;-0.37;100.00;101363.84;5016610;28;20193;-64
2022/01/13 03:41:08;;;;;;;7.55;5.70;;;0.40;92.30;;;-0.10;100.00;101416.38;5033059;28;20323;-64
2022/01/13 03:43:36;;;;;;;6.78;5.75;;;0.40;92.30;;;-0.11;100.00;101402.84;5034068;28;20203;-63
2022/01/13 03:46:06;;;;;;;7.63;5.95;;;0.40;92.40;;;-0.33;100.00;101388.34;5033619;28;20188;-64
2022/01/13 03:48:32;;;;;;;7.82;5.90;;;0.40;92.30;;;-0.23;100.00;101418.00;5016578;28;20195;-63
2022/01/13 03:50:58;;;;;;;8.85;4.97;;;0.40;92.40;;;-0.21;100.00;101418.00;5032283;28;20184;-63
2022/01/13 03:53:27;;;;;;;7.43;5.67;;;0.30;92.30;;;-0.25;100.00;101419.69;5015885;28;20199;-63
2022/01/13 03:56:42;;;;;;;5.78;4.47;;;0.30;92.30;;;-0.33;100.00;101431.47;5032597;28;20275;-63
2022/01/13 04:00:08;;;;;;;5.70;4.93;;;0.30;92.20;;;-0.42;100.00;101432.31;5032108;28;20192;-64
2022/01/13 04:02:34;;;;;;;5.60;4.90;;;0.20;92.30;;;-0.49;100.00;101415.34;5018944;28;20279;-63
2022/01/13 04:05:00;;;;;;;6.43;5.03;;;0.10;92.40;;;-0.41;100.00;101428.03;5032233;28;20207;-63
2022/01/13 04:07:26;;;;;;;6.20;4.53;;;0.00;92.50;;;-0.70;100.00;101371.28;5014602;28;20232;-63
2022/01/13 04:09:54;;;;;;;6.83;5.43;;;0.10;92.80;;;-0.26;100.00;101427.31;5033184;28;20222;-64
2022/01/13 04:12:23;;;;;;;5.90;5.07;;;0.20;92.80;;;-0.27;100.00;101423.06;5032886;28;20180;-64
2022/01/13 04:14:53;;;;;;;7.43;4.93;;;0.20;92.40;;;-0.28;100.00;101423.91;5000067;28;20195;-64
2022/01/13 04:17:21;;;;;;;6.83;5.53;;;0.20;92.40;;;-0.57;100.00;101380.63;5016162;28;20255;-64
2022/01/13 04:19:47;;;;;;;6.50;5.37;;;0.20;92.30;;;-0.39;100.00;101423.84;5015685;28;20656;-65
2022/01/13 04:22:14;;;;;;;7.60;5.03;;;0.20;92.30;;;-0.29;100.00;101417.97;5032729;28;20661;-64
2022/01/13 04:24:45;;;;;;;7.00;5.40;;;0.20;92.30;;;-0.27;100.00;101425.59;5015861;28;20192;-63
2022/01/13 04:27:20;;;;;;;7.03;5.60;;;0.20;92.30;;;-0.48;100.00;101383.22;5015712;28;20188;-63
2022/01/13 04:29:48;;;;;;;6.90;4.50;;;0.20;91.90;;;-0.98;100.00;101304.38;5001470;28;20799;-63
2022/01/13 04:32:14;;;;;;;7.43;4.67;;;0.10;91.60;;;-0.30;100.00;101421.34;5032624;28;20287;-64
2022/01/13 04:34:40;;;;;;;7.00;4.60;;;0.10;91.90;;;-0.46;100.00;101411.97;5031554;28;20544;-63
2022/01/13 04:37:06;;;;;;;6.37;5.03;;;0.00;92.00;;;-0.64;100.00;101377.22;5031432;28;20551;-63
2022/01/13 04:39:32;;;;;;;6.90;5.50;;;0.00;92.20;;;-0.38;100.00;101415.41;5032688;28;20661;-63
2022/01/13 04:41:58;;;;;;;5.77;4.77;;;0.00;92.30;;;-0.51;100.00;101413.66;5031641;28;20195;-63
2022/01/13 04:44:25;;;;;;;6.47;5.53;;;0.00;92.40;;;-0.45;100.00;101416.22;4998789;28;20199;-63
2022/01/13 04:46:52;;;;;;;6.70;5.00;;;0.00;92.50;;;-0.39;100.00;101429.75;5031435;28;20662;-63
2022/01/13 04:49:19;;;;;;;6.70;4.77;;;0.00;92.60;;;-0.61;100.00;101396.69;5031309;28;20603;-64
2022/01/13 04:51:46;;;;;;;6.47;4.97;;;-0.10;92.60;;;-0.77;100.00;101398.28;5031697;28;20298;-64
2022/01/13 04:54:12;;;;;;;7.83;5.40;;;-0.10;92.70;;;-0.47;100.00;101428.03;5015153;28;20211;-64
2022/01/13 04:56:42;;;;;;;6.27;5.23;;;-0.10;92.80;;;-0.46;100.00;101435.66;5031411;28;20192;-64
2022/01/13 04:59:08;;;;;;;4.30;3.30;;;-0.10;92.80;;;-0.64;100.00;101435.53;5031561;28;20585;-64
2022/01/13 05:01:34;;;;;;;8.53;5.77;;;-0.10;92.80;;;-0.75;100.00;101446.44;5014889;28;20200;-64
2022/01/13 05:04:00;;;;;;;6.67;5.23;;;-0.10;92.80;;;-0.80;100.00;101454.00;5031313;28;20550;-64
2022/01/13 05:06:26;;;;;;;6.80;5.10;;;-0.10;92.70;;;-0.85;100.00;101448.91;5031029;28;20232;-64
2022/01/13 05:08:52;;;;;;;6.37;5.40;;;-0.10;92.50;;;-0.57;100.00;101444.88;5032572;28;20263;-63
2022/01/13 05:11:18;;;;;;;6.67;4.73;;;-0.20;92.60;;;-0.61;100.00;101438.09;5031289;28;20193;-63
2022/01/13 05:13:45;;;;;;;6.73;5.30;;;-0.20;92.70;;;-0.60;100.00;101436.41;5014958;28;20283;-64
2022/01/13 05:16:34;;;;;;;6.00;5.40;;;-0.20;92.80;;;-0.45;100.00;101436.50;5031464;28;20276;-63
2022/01/13 05:22:05;;;;;;;6.97;5.33;;;-0.10;93.00;;;-0.60;100.00;101441.47;5036217;28;20250;-63
2022/01/13 05:24:25;;;;;;;6.87;4.67;;;-0.10;92.90;;;-0.49;100.00;101443.22;5035057;28;20577;-63
2022/01/13 05:26:51;;;;;;;6.10;5.53;;;-0.10;93.00;;;-0.44;100.00;101450.88;5018659;28;20234;-63
2022/01/13 05:29:20;;;;;;;6.10;5.50;;;-0.10;93.00;;;-0.63;100.00;101431.31;5035959;28;20216;-63
2022/01/13 05:31:46;;;;;;;8.63;6.10;;;0.00;93.10;;;-0.51;100.00;101428.88;5036160;28;20197;-63
2022/01/13 05:34:12;;;;;;;7.97;5.73;;;0.00;93.10;;;-0.72;100.00;101409.28;5034958;28;20188;-63
2022/01/13 05:36:38;;;;;;;7.37;5.17;;;0.00;93.20;;;-0.44;100.00;101458.47;5034649;28;20191;-63
2022/01/13 05:39:04;;;;;;;7.67;5.90;;;0.00;93.20;;;-0.58;100.00;101437.28;5018345;28;20668;-63
2022/01/13 05:41:31;;;;;;;6.03;5.40;;;0.00;93.20;;;-0.39;100.00;101466.94;5034720;28;20634;-63
2022/01/13 05:43:58;;;;;;;7.67;6.13;;;0.10;93.20;;;-0.80;100.00;101410.94;5034954;28;20628;-63
2022/01/13 05:46:23;;;;;;;7.23;5.30;;;0.10;93.10;;;-0.51;100.00;101466.88;5018195;28;20184;-63
2022/01/13 05:48:49;;;;;;;4.80;4.32;;;0.10;93.00;;;-0.70;100.00;101443.09;5034763;28;20209;-63
2022/01/13 05:51:16;;;;;;;8.37;5.90;;;0.10;93.00;;;-0.57;100.00;101472.75;5051003;28;20607;-63
2022/01/13 05:53:42;;;;;;;7.97;6.13;;;0.00;92.90;;;-0.58;100.00;101471.09;5034397;28;20589;-63
2022/01/13 05:56:09;;;;;;;7.67;5.97;;;0.00;92.90;;;-0.79;100.00;101430.38;5018277;28;20196;-63
2022/01/13 05:58:35;;;;;;;9.70;5.85;;;0.00;93.00;;;-0.60;100.00;101461.75;5035270;28;20200;-63
2022/01/13 06:01:01;;;;;;;8.15;6.40;;;0.00;93.10;;;-0.59;100.00;101461.78;5034522;28;20188;-63
2022/01/13 06:03:27;;;;;;;8.20;5.53;;;-0.10;93.10;;;-0.52;100.00;101462.66;5035196;28;20192;-63
2022/01/13 06:05:53;;;;;;;11.03;6.17;;;0.00;93.30;;;-0.55;100.00;101450.81;5034088;28;20263;-62
2022/01/13 06:08:19;;;;;;;7.67;6.07;;;0.00;93.30;;;-0.47;100.00;101459.31;5035256;28;20199;-63
2022/01/13 06:10:46;;;;;;;7.80;6.10;;;0.00;93.30;;;-0.52;100.00;101455.06;5035483;28;20665;-63
2022/01/13 06:13:13;;;;;;;8.37;6.03;;;0.00;93.40;;;-0.55;100.00;101450.81;5018117;28;20265;-63
2022/01/13 06:15:39;;;;;;;7.33;6.23;;;0.00;93.40;;;-0.58;100.00;101437.28;5035274;28;20223;-63
2022/01/13 06:18:10;;;;;;;10.67;6.13;;;0.10;93.30;;;-0.47;100.00;101449.16;5017549;28;20198;-63
2022/01/13 06:20:36;;;;;;;6.93;5.77;;;0.10;93.30;;;-0.48;100.00;101451.69;5001748;28;20226;-63
2022/01/13 06:23:02;;;;;;;8.57;6.73;;;0.10;93.20;;;-0.47;100.00;101459.31;5033912;28;20620;-63
2022/01/13 06:25:28;;;;;;;6.43;5.43;;;0.10;93.20;;;-0.72;100.00;101405.91;5033658;28;20218;-63
2022/01/13 06:27:54;;;;;;;9.67;7.00;;;0.10;93.20;;;-0.49;100.00;101447.44;5034923;28;20192;-63
2022/01/13 06:30:19;;;;;;;6.50;5.53;;;0.10;93.20;;;-0.54;100.00;101442.34;5032796;28;20212;-61
2022/01/13 06:32:46;;;;;;;7.63;6.23;;;0.10;93.10;;;-0.61;100.00;101419.50;5034923;28;20216;-62
2022/01/13 06:35:13;;;;;;;7.20;6.40;;;0.10;93.20;;;-0.44;100.00;101456.78;5017495;28;20189;-63
2022/01/13 06:37:41;;;;;;;8.27;6.30;;;0.10;93.20;;;-0.49;100.00;101448.28;5033539;28;20733;-63
2022/01/13 06:40:08;;;;;;;7.67;5.80;;;0.10;93.30;;;-0.29;100.00;101462.78;5034824;28;20184;-62
2022/01/13 06:42:34;;;;;;;9.43;6.33;;;0.20;93.40;;;-0.32;100.00;101453.47;5001071;28;20608;-63
2022/01/13 06:45:00;;;;;;;6.80;5.57;;;0.20;93.30;;;-0.22;100.00;101460.28;5035092;28;20212;-62
2022/01/13 06:47:25;;;;;;;7.53;6.33;;;0.10;93.30;;;-0.28;100.00;101472.09;5033278;28;20680;-62
2022/01/13 06:49:51;;;;;;;7.65;6.20;;;0.10;93.30;;;-0.37;100.00;101475.41;5034520;28;20291;-62
2022/01/13 06:52:17;;;;;;;7.43;5.30;;;0.20;93.40;;;-0.58;100.00;101445.72;5017027;28;20184;-62
2022/01/13 06:54:44;;;;;;;10.10;6.60;;;0.10;93.40;;;-0.21;100.00;101486.50;5032531;28;20223;-62
2022/01/13 06:57:10;;;;;;;7.72;6.30;;;0.20;93.50;;;-0.18;100.00;101491.59;5033233;28;20197;-63
2022/01/13 06:59:36;;;;;;;8.90;6.40;;;0.20;93.50;;;-0.20;100.00;101490.75;5032946;28;20258;-63
2022/01/13 07:02:02;;;;;;;8.35;5.97;;;0.20;93.50;;;-0.26;100.00;101494.09;5034419;28;20196;-62
2022/01/13 07:04:28;;;;;;;7.47;6.20;;;0.20;93.50;;;-0.34;100.00;101467.84;5032929;28;20639;-63
2022/01/13 07:06:54;;;;;;;10.90;7.73;;;0.30;93.60;;;0.03;100.00;101504.38;5016622;28;20275;-62
2022/01/13 07:09:21;;;;;;;6.53;5.68;;;0.40;93.50;;;0.04;100.00;101503.53;5016787;28;20200;-62
2022/01/13 07:11:47;;;;;;;8.37;6.13;;;0.50;93.20;;;0.04;100.00;101508.63;5034302;28;20239;-62
2022/01/13 07:14:13;;;;;;;10.17;6.37;;;0.60;93.00;;;-0.04;100.00;101510.28;5033064;28;20199;-62
2022/01/13 07:16:40;;;;;;;11.77;6.67;;;0.60;92.90;;;-0.25;100.00;101456.91;5033005;28;20192;-62
2022/01/13 07:19:11;;;;;;;8.73;6.40;;;0.60;92.70;;;-0.30;100.00;101461.09;5000588;28;20181;-62
2022/01/13 07:21:39;;;;;;;8.20;5.80;;;0.60;92.60;;;-0.32;100.00;101467.81;5016867;28;20195;-62
2022/01/13 07:24:05;;;;;;;9.10;6.28;;;0.50;92.50;;;-0.02;100.00;101516.22;5032789;28;20638;-62
2022/01/13 07:26:31;;;;;;;11.00;6.70;;;0.50;92.60;;;-0.03;100.00;101520.44;5032610;28;20246;-64
2022/01/13 07:28:57;;;;;;;8.10;6.13;;;0.50;92.80;;;0.01;100.00;101516.22;5032708;28;20208;-62
2022/01/13 07:31:23;;;;;;;7.07;5.80;;;0.50;92.90;;;0.04;100.00;101517.91;5032621;28;20192;-62
2022/01/13 07:33:49;;;;;;;10.90;6.60;;;0.50;93.00;;;0.04;100.00;101528.91;5033582;28;20184;-63
2022/01/13 07:36:15;;;;;;;11.73;6.78;;;0.50;93.00;;;0.06;100.00;101529.78;5032552;28;20637;-62
2022/01/13 07:38:41;;;;;;;9.30;6.30;;;0.50;93.10;;;0.05;100.00;101528.09;4999523;28;20200;-69
2022/01/13 07:41:07;;;;;;;8.30;5.88;;;0.60;93.20;;;0.18;100.00;101521.38;5033740;28;20663;-69
2022/01/13 07:43:33;;;;;;;10.35;7.25;;;0.70;93.20;;;0.15;100.00;101524.75;5015847;28;20192;-69
2022/01/13 07:45:59;;;;;;;7.47;6.68;;;0.70;92.90;;;0.20;100.00;101529.84;5033919;28;20188;-69
2022/01/13 07:48:25;;;;;;;7.78;6.18;;;0.70;92.80;;;0.04;100.00;101493.41;5033174;28;20203;-68
2022/01/13 07:50:52;;;;;;;6.57;4.93;;;0.70;92.90;;;0.35;100.00;101532.44;5032445;28;20283;-70
2022/01/13 07:53:18;;;;;;;6.22;5.38;;;0.80;93.00;;;0.29;100.00;101515.50;5032005;28;20230;-71
2022/01/13 07:55:44;;;;;;;7.07;6.20;;;0.80;93.00;;;0.09;100.00;101471.41;5015701;28;20200;-70
2022/01/13 07:58:10;;;;;;;8.45;6.20;;;0.90;93.10;;;-0.01;100.00;101480.69;5031564;28;20200;-71
2022/01/13 08:00:36;;;;;;;11.32;8.43;;;0.90;93.00;;;0.27;100.00;101540.03;5032428;28;20913;-68
2022/01/13 08:03:02;;;;;;;8.70;6.57;;;0.90;92.90;;;0.23;100.00;101533.25;5015165;28;20275;-68
2022/01/13 08:05:28;;;;;;;9.85;6.45;;;0.80;92.90;;;0.15;100.00;101519.69;5032281;28;20188;-66
2022/01/13 08:07:54;;;;;;;8.00;5.45;;;0.80;93.00;;;0.05;100.00;101484.94;5031983;28;20200;-69
2022/01/13 08:10:21;;;;;;;7.07;6.15;;;0.80;93.20;;;0.02;100.00;101469.69;5031723;28;20628;-68
2022/01/13 08:12:47;;;;;;;8.07;5.55;;;0.90;93.40;;;0.36;100.00;101513.81;5014918;28;20246;-70
2022/01/13 08:15:14;;;;;;;9.38;6.07;;;0.90;93.40;;;0.28;100.00;101505.34;5032708;28;20193;-72
2022/01/13 08:20:31;;;;;;;7.68;5.88;;;0.90;92.80;;;0.28;100.00;101513.81;5031706;28;20215;-71
2022/01/13 08:22:57;;;;;;;10.27;7.40;;;0.90;92.80;;;0.00;100.00;101469.69;5015245;28;20596;-72
2022/01/13 08:25:23;;;;;;;8.50;6.45;;;0.90;92.80;;;0.29;100.00;101533.28;5031711;28;20279;-69
2022/01/13 08:27:50;;;;;;;6.57;5.63;;;0.90;92.90;;;0.06;100.00;101484.09;5014857;28;20596;-71
2022/01/13 08:30:15;;;;;;;8.95;6.03;;;0.90;93.00;;;0.49;100.00;101532.50;5031695;28;20299;-72
2022/01/13 08:32:41;;;;;;;7.90;6.18;;;0.90;93.10;;;0.39;100.00;101516.38;5031389;28;20196;-67
2022/01/13 08:35:08;;;;;;;8.48;5.75;;;1.00;93.00;;;0.55;100.00;101527.44;5015380;28;20196;-68
2022/01/13 08:37:34;;;;;;;6.38;5.70;;;1.00;93.00;;;0.55;100.00;101517.28;5032298;28;20180;-70
2022/01/13 08:40:02;;;;;;;8.90;6.20;;;1.00;92.90;;;0.56;100.00;101517.28;5032730;28;20184;-73
2022/01/13 08:42:29;;;;;;;8.23;5.68;;;1.10;92.80;;;0.36;100.00;101476.59;5015235;28;20625;-69
2022/01/13 08:44:55;;;;;;;9.40;6.32;;;1.10;92.80;;;0.40;100.00;101472.38;5015383;28;20234;-70
2022/01/13 08:47:21;;;;;;;9.38;6.25;;;1.10;92.80;;;0.61;100.00;101523.22;5015233;28;20645;-68
2022/01/13 08:49:48;;;;;;;10.40;7.07;;;1.20;92.80;;;0.38;100.00;101484.22;5031189;28;20269;-71
2022/01/13 08:52:14;;;;;;;9.85;6.57;;;1.20;92.90;;;0.71;100.00;101524.09;5033135;28;20196;-68
2022/01/13 08:54:45;;;;;;;10.85;6.53;;;1.20;92.90;;;0.93;100.00;101524.97;5035144;28;20185;-72
2022/01/13 08:57:11;;;;;;;9.07;6.72;;;1.30;93.20;;;1.06;100.00;101526.69;5036414;28;20216;-70
2022/01/13 08:59:37;;;;;;;7.50;5.85;;;1.50;93.10;;;1.18;100.00;101521.59;5036262;28;20299;-68
2022/01/13 09:02:03;;;;;;;10.32;7.03;;;1.60;93.00;;;1.31;100.00;101528.41;5036639;28;20208;-70
2022/01/13 09:04:29;;;;;;;9.10;7.38;;;1.70;92.80;;;1.31;100.00;101528.41;5036204;28;20184;-65
2022/01/13 09:06:55;;;;;;;11.80;7.95;;;1.80;92.40;;;1.20;100.00;101516.53;5034912;28;20239;-72
2022/01/13 09:09:21;;;;;;;10.00;6.00;;;1.80;92.00;;;1.30;100.00;101521.63;5035061;28;20207;-74
2022/01/13 09:11:47;;;;;;;9.57;7.50;;;1.80;92.10;;;1.13;100.00;101465.69;5036443;28;20180;-70
2022/01/13 09:14:15;;;;;;;12.55;7.20;;;1.90;92.20;;;1.50;100.00;101517.34;5018729;28;20196;-70
2022/01/13 09:16:42;;;;;;;8.90;6.63;;;1.90;92.10;;;1.55;100.00;101503.81;5036174;28;20285;-70
2022/01/13 09:19:13;;;;;;;9.55;6.88;;;2.00;92.10;;;1.33;100.00;101452.09;5002747;28;20184;-70
2022/01/13 09:21:41;;;;;;;10.63;6.80;;;2.10;92.10;;;1.75;100.00;101500.34;5034921;28;20265;-70
2022/01/13 09:24:10;;;;;;;8.73;6.50;;;2.30;92.20;;;1.81;100.00;101502.88;5018770;28;20550;-71
2022/01/13 09:26:36;;;;;;;9.63;6.95;;;2.30;91.70;;;1.72;100.00;101497.00;5034827;28;20188;-71
2022/01/13 09:29:04;;;;;;;8.82;6.43;;;2.30;91.30;;;1.80;100.00;101496.13;5018436;28;20679;-72
2022/01/13 09:31:31;;;;;;;9.57;6.05;;;2.40;91.20;;;1.96;100.00;101496.91;5034798;28;20287;-65
2022/01/13 09:33:57;;;;;;;9.25;6.93;;;2.50;91.40;;;2.02;100.00;101494.34;5034730;28;20200;-71
2022/01/13 09:36:23;;;;;;;7.68;6.47;;;2.60;91.50;;;2.10;100.00;101501.94;5034759;28;20192;-73
2022/01/13 09:38:49;;;;;;;9.57;7.20;;;2.60;91.50;;;1.86;100.00;101470.63;5035643;28;20237;-72
2022/01/13 09:41:15;;;;;;;9.02;6.80;;;2.70;91.50;;;2.06;100.00;101502.84;5034878;28;20196;-71
2022/01/13 09:43:44;;;;;;;10.75;6.82;;;2.70;91.30;;;2.20;100.00;101507.00;5034579;28;20266;-74
2022/01/13 09:46:10;;;;;;;8.07;6.75;;;2.80;91.30;;;2.37;100.00;101511.19;5034719;28;20180;-70
2022/01/13 09:48:41;;;;;;;8.05;6.60;;;2.90;90.80;;;2.28;100.00;101506.97;5018119;28;20192;-71
2022/01/13 09:51:07;;;;;;;10.20;6.80;;;3.00;90.50;;;2.42;100.00;101519.63;5018348;28;20192;-71
2022/01/13 09:53:34;;;;;;;12.90;7.78;;;3.00;90.40;;;2.42;100.00;101517.94;5017820;28;20188;-74
2022/01/13 09:55:59;;;;;;;10.18;6.72;;;3.00;90.10;;;2.36;100.00;101522.22;5035457;28;20184;-73
2022/01/13 09:58:25;;;;;;;11.40;6.43;;;3.10;90.00;;;2.39;100.00;101514.56;5034210;28;20207;-74
2022/01/13 10:00:51;;;;;;;9.45;6.45;;;3.10;89.80;;;2.38;100.00;101516.28;5035132;28;20188;-71
2022/01/13 10:03:23;;;;;;;7.68;6.05;;;3.10;89.80;;;2.40;100.00;101496.72;5035122;28;20199;-71
2022/01/13 10:05:58;;;;;;;9.48;6.50;;;3.10;90.00;;;2.63;100.00;101506.81;5034316;28;20290;-71
2022/01/13 10:08:41;;;;;;;9.90;6.93;;;3.20;90.10;;;2.70;100.00;101493.16;5035576;28;20226;-71
2022/01/13 10:11:34;;;;;;;7.53;5.40;;;3.30;89.60;;;2.47;100.00;101500.09;5034423;28;20191;-71
2022/01/13 10:16:23;;;;;;;6.53;5.22;;;3.30;89.40;;;3.20;100.00;101500.44;5034111;28;20230;-73
2022/01/13 10:17:18;;;;;;;6.85;4.85;;;3.50;90.00;;;3.73;100.00;101502.50;5034142;28;20192;-69
2022/01/13 10:19:46;;;;;;;6.53;4.93;;;4.10;90.20;;;4.11;100.00;101496.97;5018227;28;20339;-75
2022/01/13 10:22:15;;;;;;;5.93;4.35;;;4.40;88.30;;;4.96;100.00;101500.91;5017998;28;20189;-69
2022/01/13 10:24:43;;;;;;;6.00;4.68;;;4.90;87.80;;;6.15;96.09;101492.84;5033556;28;20642;-73
2022/01/13 10:27:19;;;;;;;4.88;4.20;;;5.80;86.90;;;6.68;88.61;101499.38;5034158;28;20259;-72
2022/01/13 10:29:56;;;;;;;6.00;4.28;;;6.70;82.20;;;7.01;83.40;101483.22;5033671;28;20216;-73
2022/01/13 10:32:25;;;;;;;5.20;3.90;;;7.50;79.40;;;6.65;79.30;101453.31;5017684;28;20188;-74
2022/01/13 10:35:05;;;;;;;4.15;3.75;;;8.00;76.00;;;6.46;77.51;101453.72;5017308;28;20193;-72
2022/01/13 10:37:38;;;;;;;3.83;3.42;;;8.50;72.20;;;6.32;83.31;101491.63;5018040;28;20795;-73
2022/01/13 10:40:13;;;;;;;3.53;2.97;;;8.30;68.60;;;6.47;83.10;101503.28;5033734;28;20287;-75
2022/01/13 10:45:36;;;;;;;3.85;3.30;;;8.10;67.60;;;7.24;75.78;101496.38;5033409;28;20196;-76